Bearden, Oklahoma
Current Conditions -  °F | °C
As of 2:55 AM on Thursday 23 Oct 2014 (Local Time) from KOKM Reporting Station
Overcast Overcast  
Wind Chill: 61°   Ceiling: 9000
Heat Index: 61°   Visibility: 10mi
Dew Point: 59°   Wind: 3mph
Humidity: 93%   Direction: 150°SSE
Pressure: 30.12"   Gusts: NA
Location:  35.469°N, 96.2923°W
Report Text: KOKM 230755Z AUTO 15003KT 10SM OVC090 16/15 A3012 RMK AO2 P0001 T01600148
Loading
Personal Weather Stations






























Interactive Weather Map
Tropical Storm Tracking
New forecast layout! Learn more

10-Day Weather Forecast

Advertisements
Track Severe Weather on mobile